Time;durP1;ratioP1;P1;durP2;ratioP2;P2;SDS_P1;SDS_P2;PMS_P1;PMS_P2;Temp;Humidity;BMP_temperature;BMP_pressure;BME280_temperature;BME280_humidity;BME280_pressure;Samples;Min_cycle;Max_cycle;Signal;HPM_P1;HPM_P2
2021/03/10 00:00:57;;;;;;;35.17;17.45;;;5.40;99.90;;;;;;4989903;28;20099;-76
2021/03/10 00:03:22;;;;;;;39.92;17.80;;;5.40;99.90;;;;;;4993466;28;20080;-77
2021/03/10 00:05:48;;;;;;;37.05;17.40;;;5.40;99.90;;;;;;4982236;28;20037;-79
2021/03/10 00:08:13;;;;;;;36.53;17.98;;;5.40;99.90;;;;;;4991747;28;20045;-78
2021/03/10 00:10:39;;;;;;;39.75;18.33;;;5.40;99.90;;;;;;4994682;28;20514;-78
2021/03/10 00:13:05;;;;;;;41.67;18.40;;;5.40;99.90;;;;;;4995142;28;20038;-78
2021/03/10 00:15:30;;;;;;;36.33;17.50;;;5.30;99.90;;;;;;4985480;28;20069;-78
2021/03/10 00:17:56;;;;;;;40.00;17.88;;;5.30;99.90;;;;;;4994001;28;20038;-79
2021/03/10 00:20:22;;;;;;;45.17;19.65;;;5.30;99.90;;;;;;4998536;28;20096;-76
2021/03/10 00:22:48;;;;;;;40.75;19.13;;;5.30;99.90;;;;;;4985302;28;20037;-77
2021/03/10 00:25:14;;;;;;;43.33;18.40;;;5.30;99.90;;;;;;4973897;28;20640;-77
2021/03/10 00:27:40;;;;;;;42.10;20.17;;;5.30;99.90;;;;;;4993932;28;20093;-78
2021/03/10 00:30:09;;;;;;;41.78;19.17;;;5.30;99.90;;;;;;4975686;28;20042;-77
2021/03/10 00:32:36;;;;;;;43.75;19.88;;;5.30;99.90;;;;;;4977940;28;20783;-78
2021/03/10 00:35:02;;;;;;;42.45;19.13;;;5.30;99.90;;;;;;4992989;28;20046;-80
2021/03/10 00:37:28;;;;;;;40.83;19.05;;;5.30;99.90;;;;;;5004403;28;20041;-79
2021/03/10 00:39:54;;;;;;;44.85;19.95;;;5.20;99.90;;;;;;4992826;28;20221;-78
2021/03/10 00:42:20;;;;;;;43.70;19.98;;;5.30;99.90;;;;;;4990371;28;20121;-78
2021/03/10 00:44:45;;;;;;;53.20;21.77;;;5.30;99.90;;;;;;4991604;28;20042;-79
2021/03/10 00:47:12;;;;;;;48.90;21.30;;;5.30;99.90;;;;;;4989376;28;20030;-78
2021/03/10 00:49:39;;;;;;;48.33;22.00;;;5.30;99.90;;;;;;5000494;28;20038;-79
2021/03/10 00:52:05;;;;;;;49.95;22.73;;;5.20;99.90;;;;;;4994614;28;20521;-78
2021/03/10 00:54:31;;;;;;;53.05;23.35;;;5.20;99.90;;;;;;4992056;28;20050;-78
2021/03/10 00:56:57;;;;;;;52.92;23.38;;;5.20;99.90;;;;;;4992110;28;20499;-75
2021/03/10 00:59:22;;;;;;;56.50;23.55;;;5.30;99.90;;;;;;4997241;28;20045;-77
2021/03/10 01:01:48;;;;;;;55.08;23.80;;;5.20;99.90;;;;;;4998892;28;20031;-76
2021/03/10 01:04:13;;;;;;;51.67;23.63;;;5.20;99.90;;;;;;4998842;28;20117;-76
2021/03/10 01:06:39;;;;;;;64.72;25.15;;;5.20;99.90;;;;;;4984965;28;20046;-75
2021/03/10 01:09:06;;;;;;;55.33;24.10;;;5.20;99.90;;;;;;4997485;28;20294;-75
2021/03/10 01:11:32;;;;;;;55.28;23.90;;;5.20;99.90;;;;;;4987777;28;20062;-76
2021/03/10 01:13:58;;;;;;;60.72;24.60;;;5.30;99.90;;;;;;4996653;28;20093;-76
2021/03/10 01:16:24;;;;;;;71.07;26.27;;;5.30;99.90;;;;;;4978241;28;20040;-77
2021/03/10 01:18:50;;;;;;;60.17;24.40;;;5.20;99.90;;;;;;4998386;28;20046;-79
2021/03/10 01:21:16;;;;;;;58.17;25.23;;;5.30;99.90;;;;;;5005690;28;20514;-77
2021/03/10 01:23:41;;;;;;;66.13;26.52;;;5.30;99.90;;;;;;4997831;28;20096;-77
2021/03/10 01:26:07;;;;;;;59.97;25.15;;;5.30;99.90;;;;;;4982169;28;20077;-78
2021/03/10 01:28:32;;;;;;;53.75;24.02;;;5.20;99.90;;;;;;4994707;28;20040;-77
2021/03/10 01:30:58;;;;;;;53.90;24.73;;;5.30;99.90;;;;;;4994369;28;20117;-78
2021/03/10 01:33:23;;;;;;;63.25;27.15;;;5.20;99.90;;;;;;4984194;28;20045;-79
2021/03/10 01:35:49;;;;;;;54.42;24.70;;;5.30;99.90;;;;;;4995811;28;20900;-78
2021/03/10 01:38:15;;;;;;;68.45;26.88;;;5.30;99.90;;;;;;4995230;28;20034;-78
2021/03/10 01:40:40;;;;;;;56.97;25.92;;;5.20;99.90;;;;;;4996148;28;20080;-79
2021/03/10 01:43:07;;;;;;;60.80;25.83;;;5.30;99.90;;;;;;4996949;28;20150;-79
2021/03/10 01:45:34;;;;;;;60.88;26.13;;;5.20;99.90;;;;;;4980673;28;20084;-77
2021/03/10 01:48:01;;;;;;;69.85;26.52;;;5.20;99.90;;;;;;5012767;28;20042;-76
2021/03/10 01:50:28;;;;;;;53.40;25.52;;;5.20;99.90;;;;;;5000412;28;20042;-78
2021/03/10 01:52:56;;;;;;;53.53;24.52;;;5.20;99.90;;;;;;4999313;28;20038;-77
2021/03/10 01:55:22;;;;;;;61.30;26.42;;;5.10;99.90;;;;;;5011542;28;20091;-76
2021/03/10 01:57:48;;;;;;;62.53;25.38;;;5.10;99.90;;;;;;5013301;28;20053;-79
2021/03/10 02:00:15;;;;;;;64.43;27.13;;;5.10;99.90;;;;;;4996622;28;20046;-78
2021/03/10 02:02:40;;;;;;;61.05;25.77;;;5.10;99.90;;;;;;4995210;28;20104;-78
2021/03/10 02:05:07;;;;;;;56.67;25.42;;;5.10;99.90;;;;;;4978902;28;20080;-79
2021/03/10 02:07:58;;;;;;;54.47;25.10;;;5.10;99.90;;;;;;4994794;28;20101;-78
2021/03/10 02:10:45;;;;;;;66.88;26.92;;;5.00;99.90;;;;;;4984223;28;20052;-78
2021/03/10 02:13:25;;;;;;;60.42;25.95;;;5.00;99.90;;;;;;4992783;28;20037;-79
2021/03/10 02:16:28;;;;;;;64.25;25.95;;;4.90;99.90;;;;;;4991521;28;20069;-77
2021/03/10 02:19:08;;;;;;;59.28;25.25;;;4.90;99.90;;;;;;4998730;28;20038;-77
2021/03/10 02:21:56;;;;;;;59.50;25.52;;;4.90;99.90;;;;;;4999383;28;20073;-77
2021/03/10 02:24:36;;;;;;;65.47;26.42;;;4.90;99.90;;;;;;4995011;28;20048;-78
2021/03/10 02:27:39;;;;;;;66.15;26.08;;;4.90;99.90;;;;;;4996783;28;20101;-79
2021/03/10 02:30:17;;;;;;;52.65;23.58;;;5.00;99.90;;;;;;4989455;28;20462;-77
2021/03/10 02:32:56;;;;;;;61.80;25.20;;;5.00;99.90;;;;;;4997845;28;20101;-79
2021/03/10 02:35:23;;;;;;;53.25;23.85;;;5.00;99.90;;;;;;4974325;28;20403;-77
2021/03/10 02:37:52;;;;;;;56.33;24.92;;;5.00;99.90;;;;;;4983837;28;20205;-78
2021/03/10 02:40:20;;;;;;;64.18;25.67;;;5.00;99.90;;;;;;4983430;28;20038;-79
2021/03/10 02:42:46;;;;;;;66.53;26.80;;;5.00;99.90;;;;;;4988919;28;20045;-78
2021/03/10 02:45:13;;;;;;;62.53;25.45;;;5.00;99.90;;;;;;4993657;28;20707;-77
2021/03/10 02:47:40;;;;;;;52.92;23.85;;;4.90;99.90;;;;;;4990346;28;20121;-78
2021/03/10 02:50:07;;;;;;;60.33;24.52;;;4.90;99.90;;;;;;4990050;28;20148;-78
2021/03/10 02:52:34;;;;;;;62.97;25.40;;;5.00;99.90;;;;;;4983951;28;20034;-77
2021/03/10 02:55:00;;;;;;;56.88;24.17;;;4.90;99.90;;;;;;4973698;28;20042;-78
2021/03/10 02:57:26;;;;;;;59.22;25.60;;;4.90;99.90;;;;;;4975685;28;20041;-78
2021/03/10 02:59:53;;;;;;;67.05;27.60;;;4.90;99.90;;;;;;4974273;28;20116;-76
2021/03/10 03:02:18;;;;;;;59.50;26.20;;;5.00;99.90;;;;;;4991812;28;20058;-76
2021/03/10 03:04:44;;;;;;;66.53;27.90;;;5.00;99.90;;;;;;4986482;28;20069;-78
2021/03/10 03:07:10;;;;;;;65.15;25.75;;;5.00;99.90;;;;;;4991615;28;20033;-77
2021/03/10 03:09:38;;;;;;;60.08;25.92;;;5.00;99.90;;;;;;4991158;28;20096;-78
2021/03/10 03:12:05;;;;;;;59.80;25.45;;;5.00;99.90;;;;;;4983846;28;20555;-78
2021/03/10 03:14:33;;;;;;;61.38;27.45;;;5.00;99.90;;;;;;4988934;28;20035;-78
2021/03/10 03:17:00;;;;;;;65.50;27.77;;;5.00;99.90;;;;;;4989539;28;20038;-79
2021/03/10 03:19:27;;;;;;;73.60;27.52;;;5.00;99.90;;;;;;4971698;28;20034;-77
2021/03/10 03:21:53;;;;;;;65.03;27.30;;;5.00;99.90;;;;;;4974186;28;20046;-78
2021/03/10 03:24:19;;;;;;;64.18;27.17;;;5.10;99.90;;;;;;4989194;28;20049;-79
2021/03/10 03:26:45;;;;;;;61.90;26.95;;;5.10;99.90;;;;;;4988250;28;20046;-78
2021/03/10 03:29:12;;;;;;;68.13;27.55;;;5.10;99.90;;;;;;4989513;28;20048;-80
2021/03/10 03:31:40;;;;;;;67.28;29.20;;;5.10;99.90;;;;;;4989082;28;20042;-78
2021/03/10 03:34:06;;;;;;;71.97;27.35;;;5.10;99.90;;;;;;4990130;28;20306;-76
2021/03/10 03:36:33;;;;;;;69.30;28.05;;;5.10;99.90;;;;;;4990943;28;20038;-76
2021/03/10 03:39:01;;;;;;;74.15;28.52;;;5.10;99.90;;;;;;4989957;28;20046;-79
2021/03/10 03:41:27;;;;;;;72.25;29.40;;;5.10;99.90;;;;;;4982955;28;20042;-79
2021/03/10 03:43:53;;;;;;;66.90;28.10;;;5.10;99.90;;;;;;5000731;28;20046;-77
2021/03/10 03:46:19;;;;;;;61.30;26.08;;;5.10;99.90;;;;;;4986962;28;20034;-78
2021/03/10 03:48:45;;;;;;;75.07;28.15;;;5.00;99.90;;;;;;4990776;28;20062;-77
2021/03/10 03:51:25;;;;;;;65.72;28.48;;;5.00;99.90;;;;;;4982429;28;20029;-76
2021/03/10 03:54:03;;;;;;;62.13;27.60;;;5.00;99.90;;;;;;4990083;28;20152;-76
2021/03/10 03:56:29;;;;;;;68.18;28.38;;;5.00;99.90;;;;;;4995494;28;20499;-77
2021/03/10 03:58:55;;;;;;;67.20;27.42;;;5.00;99.90;;;;;;4982084;28;20068;-76
2021/03/10 04:01:21;;;;;;;73.07;28.10;;;4.90;99.90;;;;;;4995101;28;20509;-76
2021/03/10 04:03:47;;;;;;;69.32;30.00;;;4.90;99.90;;;;;;4997452;28;20038;-76
2021/03/10 04:06:13;;;;;;;60.58;27.42;;;4.80;99.90;;;;;;5000775;28;20046;-76
2021/03/10 04:08:41;;;;;;;72.30;29.70;;;4.80;99.90;;;;;;4997622;28;20073;-77
2021/03/10 04:11:07;;;;;;;67.72;27.63;;;4.80;99.90;;;;;;4976362;28;20030;-77
2021/03/10 04:13:33;;;;;;;62.90;27.48;;;4.80;99.90;;;;;;4999997;28;20109;-76
2021/03/10 04:15:58;;;;;;;63.40;26.98;;;4.80;99.90;;;;;;4994702;28;20658;-76
2021/03/10 04:18:24;;;;;;;76.00;28.92;;;4.80;99.90;;;;;;4987445;28;20050;-76
2021/03/10 04:20:49;;;;;;;63.40;27.52;;;4.70;99.90;;;;;;4991659;28;20820;-78
2021/03/10 04:23:15;;;;;;;67.13;27.17;;;4.70;99.90;;;;;;4983315;28;20037;-76
2021/03/10 04:25:41;;;;;;;67.45;27.77;;;4.70;99.90;;;;;;4982345;28;20042;-77
2021/03/10 04:28:06;;;;;;;69.80;27.95;;;4.70;99.90;;;;;;4984597;28;20042;-78
2021/03/10 04:30:32;;;;;;;61.78;26.85;;;4.70;99.90;;;;;;4997440;28;20034;-78
2021/03/10 04:32:58;;;;;;;65.10;27.85;;;4.70;99.90;;;;;;4994192;28;20067;-76
2021/03/10 04:35:24;;;;;;;71.70;28.15;;;4.60;99.90;;;;;;4970602;28;20038;-78
2021/03/10 04:37:50;;;;;;;67.93;27.48;;;4.60;99.90;;;;;;4992026;28;20034;-76
2021/03/10 04:40:16;;;;;;;76.07;30.13;;;4.60;99.90;;;;;;4972227;28;20066;-76
2021/03/10 04:42:42;;;;;;;68.07;27.52;;;4.60;99.90;;;;;;4971783;28;20053;-78
2021/03/10 04:45:09;;;;;;;70.68;30.13;;;4.50;99.90;;;;;;4990649;28;20042;-78
2021/03/10 04:47:35;;;;;;;71.07;29.05;;;4.50;99.90;;;;;;4976840;28;20042;-78
2021/03/10 04:50:05;;;;;;;75.50;29.13;;;4.50;99.90;;;;;;4995475;28;20042;-77
2021/03/10 04:52:31;;;;;;;75.97;29.75;;;4.50;99.90;;;;;;4995014;28;20101;-78
2021/03/10 04:54:56;;;;;;;69.60;28.42;;;4.50;99.90;;;;;;4977788;28;20959;-77
2021/03/10 04:57:22;;;;;;;72.30;29.75;;;4.50;99.90;;;;;;4974544;28;20100;-77
2021/03/10 04:59:47;;;;;;;76.18;30.98;;;4.50;99.90;;;;;;4990585;28;20129;-78
2021/03/10 05:02:13;;;;;;;70.63;29.38;;;4.60;99.90;;;;;;4981135;28;20500;-75
2021/03/10 05:04:39;;;;;;;85.80;32.10;;;4.50;99.90;;;;;;4989209;28;20038;-77
2021/03/10 05:07:05;;;;;;;73.70;29.90;;;4.60;99.90;;;;;;4990266;28;20034;-76
2021/03/10 05:09:31;;;;;;;76.47;30.95;;;4.60;99.90;;;;;;4996942;28;20491;-75
2021/03/10 05:11:57;;;;;;;74.45;31.08;;;4.60;99.90;;;;;;4985008;28;20181;-78
2021/03/10 05:14:23;;;;;;;70.82;29.13;;;4.60;99.90;;;;;;4987981;28;20038;-76
2021/03/10 05:16:48;;;;;;;72.22;29.00;;;4.60;99.90;;;;;;4990861;28;20123;-78
2021/03/10 05:19:14;;;;;;;84.28;31.10;;;4.60;99.90;;;;;;4972533;28;20129;-78
2021/03/10 05:21:39;;;;;;;78.65;30.95;;;4.60;99.90;;;;;;4993859;28;20061;-77
2021/03/10 05:24:06;;;;;;;75.07;30.30;;;4.60;99.90;;;;;;4981749;28;20038;-76
2021/03/10 05:26:31;;;;;;;71.22;30.35;;;4.70;99.90;;;;;;4992883;28;20034;-76
2021/03/10 05:28:57;;;;;;;74.90;30.90;;;4.70;99.90;;;;;;4990610;28;20038;-75
2021/03/10 05:31:23;;;;;;;71.28;29.25;;;4.80;99.90;;;;;;4996771;28;20117;-80
2021/03/10 05:33:48;;;;;;;76.22;29.33;;;4.80;99.90;;;;;;4985753;28;20117;-78
2021/03/10 05:36:14;;;;;;;80.68;31.45;;;4.80;99.90;;;;;;4983417;28;20030;-76
2021/03/10 05:38:39;;;;;;;80.18;29.85;;;4.80;99.90;;;;;;4994883;28;20037;-78
2021/03/10 05:41:05;;;;;;;69.30;31.05;;;4.80;99.90;;;;;;4993423;28;20538;-77
2021/03/10 05:43:32;;;;;;;74.93;30.40;;;4.80;99.90;;;;;;4975938;28;20070;-80
2021/03/10 05:45:58;;;;;;;74.03;30.52;;;4.80;99.90;;;;;;4990346;28;20050;-79
2021/03/10 05:48:23;;;;;;;79.18;30.63;;;4.80;99.90;;;;;;4977168;28;20038;-79
2021/03/10 05:50:49;;;;;;;73.25;30.27;;;4.80;99.90;;;;;;4992228;28;20038;-79
2021/03/10 05:53:19;;;;;;;72.88;30.02;;;4.80;99.90;;;;;;4992981;28;20076;-77
2021/03/10 05:55:46;;;;;;;78.60;31.17;;;4.80;99.90;;;;;;4976316;28;20061;-78
2021/03/10 05:58:12;;;;;;;69.07;31.05;;;4.80;99.90;;;;;;4978883;28;20628;-80
2021/03/10 06:00:46;;;;;;;77.97;31.00;;;4.80;99.90;;;;;;4995709;28;20099;-80
2021/03/10 06:03:12;;;;;;;73.78;30.67;;;4.80;99.90;;;;;;4996187;28;20237;-80
2021/03/10 06:05:38;;;;;;;74.53;29.52;;;4.80;99.90;;;;;;4995411;28;20082;-81
2021/03/10 06:08:06;;;;;;;87.10;30.55;;;4.80;99.90;;;;;;5002234;28;20045;-77
2021/03/10 06:10:39;;;;;;;66.00;29.05;;;4.80;99.90;;;;;;5002307;28;20038;-78
2021/03/10 06:13:05;;;;;;;79.45;30.33;;;4.80;99.90;;;;;;4999898;28;20057;-80
2021/03/10 06:15:41;;;;;;;70.20;30.00;;;4.80;99.90;;;;;;5002023;28;20472;-81
2021/03/10 06:18:06;;;;;;;80.60;28.45;;;4.80;99.90;;;;;;4988466;28;20038;-79
2021/03/10 06:20:32;;;;;;;75.05;31.17;;;4.90;99.90;;;;;;5007017;28;20643;-79
2021/03/10 06:22:59;;;;;;;64.72;29.85;;;4.90;99.90;;;;;;4986575;28;20108;-80
2021/03/10 06:25:40;;;;;;;73.82;29.17;;;4.90;99.90;;;;;;4997079;28;20046;-83
2021/03/10 06:28:12;;;;;;;75.53;29.05;;;4.90;99.90;;;;;;5012679;28;20049;-82
2021/03/10 06:30:40;;;;;;;74.78;29.27;;;4.90;99.90;;;;;;4993679;28;20034;-82
2021/03/10 06:33:06;;;;;;;74.07;29.30;;;5.00;99.90;;;;;;4988208;28;21325;-79
2021/03/10 06:35:33;;;;;;;79.15;28.08;;;5.00;99.90;;;;;;5010060;28;20058;-78
2021/03/10 06:38:10;;;;;;;76.20;32.63;;;5.10;99.90;;;;;;5013868;28;20048;-78
2021/03/10 06:40:46;;;;;;;71.32;29.15;;;5.20;99.90;;;;;;5011310;28;20026;-79
2021/03/10 06:43:11;;;;;;;66.95;28.33;;;5.20;99.90;;;;;;5007192;28;20129;-79
2021/03/10 06:45:37;;;;;;;66.93;26.73;;;5.20;99.90;;;;;;5009445;28;20357;-79
2021/03/10 06:48:03;;;;;;;68.68;29.25;;;5.20;99.90;;;;;;5004141;28;20038;-79
2021/03/10 06:50:37;;;;;;;67.22;26.95;;;5.30;99.90;;;;;;5009893;28;20073;-79
2021/03/10 06:53:03;;;;;;;64.47;27.50;;;5.30;99.90;;;;;;5005491;28;20518;-80
2021/03/10 06:55:45;;;;;;;62.83;27.58;;;5.40;99.90;;;;;;5008881;28;20040;-79
2021/03/10 06:58:21;;;;;;;67.93;27.35;;;5.30;99.90;;;;;;5003555;28;20045;-82
2021/03/10 07:00:47;;;;;;;71.47;28.55;;;5.40;99.90;;;;;;5003939;28;20030;-80
2021/03/10 07:03:13;;;;;;;74.75;28.42;;;5.40;99.90;;;;;;4990003;28;20069;-80
2021/03/10 07:05:40;;;;;;;70.43;28.27;;;5.30;99.90;;;;;;4982258;28;20788;-80
2021/03/10 07:08:06;;;;;;;67.97;28.23;;;5.40;99.90;;;;;;5001700;28;20788;-80
2021/03/10 07:10:33;;;;;;;71.35;29.95;;;5.40;99.90;;;;;;4988784;28;20072;-80
2021/03/10 07:12:59;;;;;;;79.07;28.08;;;5.40;99.90;;;;;;5004904;28;20047;-80
2021/03/10 07:15:27;;;;;;;66.07;28.77;;;5.50;99.90;;;;;;4988761;28;20038;-80
2021/03/10 07:17:53;;;;;;;66.57;27.27;;;5.50;99.90;;;;;;4984918;28;20046;-81
2021/03/10 07:20:21;;;;;;;66.65;27.70;;;5.60;99.90;;;;;;4977428;28;20044;-81
2021/03/10 07:22:57;;;;;;;61.38;28.08;;;5.60;99.90;;;;;;4996306;28;20496;-80
2021/03/10 07:25:40;;;;;;;69.60;28.00;;;5.60;99.90;;;;;;4998820;28;20065;-81
2021/03/10 07:28:13;;;;;;;70.55;29.88;;;5.60;99.90;;;;;;4996352;28;20040;-80
2021/03/10 07:30:47;;;;;;;68.25;27.55;;;5.70;99.90;;;;;;4992341;28;20100;-81
2021/03/10 07:33:14;;;;;;;71.40;28.77;;;5.80;99.90;;;;;;4994765;28;20551;-82
2021/03/10 07:36:01;;;;;;;72.82;28.77;;;5.80;99.90;;;;;;4996792;28;20045;-79
2021/03/10 07:38:35;;;;;;;65.38;26.30;;;5.80;99.90;;;;;;4991899;28;20040;-79
2021/03/10 07:41:03;;;;;;;;;;;5.80;99.90;;;;;;4978597;28;20053;-80
2021/03/10 07:43:36;;;;;;;67.55;27.80;;;5.80;99.90;;;;;;4996985;28;19917;-80
2021/03/10 07:46:02;;;;;;;74.82;27.10;;;6.00;99.90;;;;;;4996132;28;20056;-79
2021/03/10 07:48:35;;;;;;;62.92;25.58;;;5.90;99.90;;;;;;4992749;28;20057;-80
2021/03/10 07:51:00;;;;;;;72.45;27.55;;;6.00;99.90;;;;;;4993121;28;20045;-81
2021/03/10 07:53:39;;;;;;;68.03;27.42;;;6.00;99.90;;;;;;4994544;28;20043;-80
2021/03/10 07:56:05;;;;;;;65.70;29.13;;;5.90;99.90;;;;;;4995267;28;20050;-80
2021/03/10 07:58:32;;;;;;;67.38;28.60;;;6.00;99.90;;;;;;4999987;28;20483;-81
2021/03/10 08:00:58;;;;;;;67.63;28.00;;;6.10;99.90;;;;;;4980127;28;20057;-81
2021/03/10 08:03:32;;;;;;;68.82;26.48;;;6.10;99.90;;;;;;4980129;28;20039;-82
2021/03/10 08:06:05;;;;;;;80.40;26.65;;;6.20;99.90;;;;;;4975563;28;20054;-80
2021/03/10 08:08:41;;;;;;;65.20;27.70;;;6.30;99.90;;;;;;4992093;28;21022;-81
2021/03/10 08:11:12;;;;;;;60.05;26.50;;;6.30;99.90;;;;;;4996831;28;20154;-81
2021/03/10 08:13:38;;;;;;;62.33;27.17;;;6.40;99.90;;;;;;4975116;28;20564;-81
2021/03/10 08:16:05;;;;;;;67.82;28.35;;;6.50;99.90;;;;;;4990063;28;20076;-81
2021/03/10 08:18:34;;;;;;;66.00;27.05;;;6.50;99.90;;;;;;4980562;28;20504;-79
2021/03/10 08:21:09;;;;;;;60.47;26.73;;;6.50;99.90;;;;;;5003739;28;20046;-80
2021/03/10 08:23:35;;;;;;;65.97;27.60;;;6.50;99.90;;;;;;5004289;28;20038;-80
2021/03/10 08:26:02;;;;;;;71.50;27.45;;;6.60;99.90;;;;;;5004687;28;20041;-79
2021/03/10 08:28:32;;;;;;;66.50;27.15;;;6.70;99.90;;;;;;4999591;28;20049;-81
2021/03/10 08:31:03;;;;;;;63.13;25.42;;;6.90;99.90;;;;;;4997226;28;20051;-79
2021/03/10 08:33:29;;;;;;;60.78;26.52;;;6.90;99.90;;;;;;5005291;28;20053;-79
2021/03/10 08:35:55;;;;;;;59.63;26.92;;;7.00;99.90;;;;;;4999824;28;20045;-79
2021/03/10 08:38:21;;;;;;;60.15;26.63;;;7.20;99.90;;;;;;4995488;28;20054;-80
2021/03/10 08:40:47;;;;;;;58.03;26.48;;;7.30;99.90;;;;;;4988252;28;20179;-80
2021/03/10 08:43:17;;;;;;;57.83;26.20;;;7.30;99.90;;;;;;4997097;28;20140;-81
2021/03/10 08:45:43;;;;;;;57.83;25.85;;;7.40;99.90;;;;;;4993280;28;20045;-81
2021/03/10 08:48:11;;;;;;;55.83;24.35;;;7.30;99.90;;;;;;4996549;28;20102;-82
2021/03/10 08:50:54;;;;;;;57.55;23.92;;;7.50;99.90;;;;;;5004295;28;20034;-82
2021/03/10 08:53:27;;;;;;;57.90;24.77;;;7.70;99.90;;;;;;5004092;28;20612;-81
2021/03/10 08:55:53;;;;;;;61.70;25.48;;;8.00;99.90;;;;;;4990371;28;20058;-82
2021/03/10 08:58:19;;;;;;;66.43;26.58;;;8.00;98.90;;;;;;4994316;28;20128;-82
2021/03/10 09:00:45;;;;;;;57.13;25.67;;;8.30;98.30;;;;;;5008196;28;20053;-82
2021/03/10 09:03:18;;;;;;;60.13;25.48;;;8.40;96.60;;;;;;4987965;28;20030;-81
2021/03/10 09:05:46;;;;;;;50.45;22.52;;;8.30;94.80;;;;;;5000407;28;20537;-81
2021/03/10 09:08:13;;;;;;;55.45;25.38;;;8.60;94.80;;;;;;5004236;28;20038;-80
2021/03/10 09:10:52;;;;;;;56.40;26.08;;;9.10;91.60;;;;;;5003242;28;20045;-82
2021/03/10 09:13:21;;;;;;;56.10;24.25;;;9.30;91.60;;;;;;4994413;28;20050;-81
2021/03/10 09:15:48;;;;;;;52.70;23.40;;;9.70;88.70;;;;;;5000624;28;20056;-79
2021/03/10 09:18:14;;;;;;;52.85;22.90;;;10.40;84.60;;;;;;5012569;28;20045;-81
2021/03/10 09:20:42;;;;;;;50.33;21.30;;;10.20;78.90;;;;;;5005554;28;20046;-81
2021/03/10 09:23:08;;;;;;;45.97;22.98;;;10.20;79.10;;;;;;4999059;28;20058;-82
2021/03/10 09:25:39;;;;;;;48.65;22.90;;;10.50;77.40;;;;;;4997509;28;20045;-82
2021/03/10 09:28:13;;;;;;;43.03;20.65;;;10.10;76.10;;;;;;4998122;28;20042;-82
2021/03/10 09:30:46;;;;;;;47.83;20.58;;;9.80;77.40;;;;;;4988759;28;20155;-82
2021/03/10 09:33:18;;;;;;;49.20;22.83;;;9.40;78.50;;;;;;5001322;28;20258;-82
2021/03/10 09:35:53;;;;;;;53.60;22.45;;;9.50;79.20;;;;;;4999194;28;20042;-82
2021/03/10 09:38:22;;;;;;;41.65;20.67;;;9.30;78.60;;;;;;4978102;28;20057;-82
2021/03/10 09:40:57;;;;;;;48.53;20.95;;;9.60;77.80;;;;;;4996142;28;20046;-81
2021/03/10 09:43:27;;;;;;;45.53;20.13;;;9.90;74.40;;;;;;4998067;28;20049;-81
2021/03/10 09:46:00;;;;;;;46.03;22.63;;;10.40;72.80;;;;;;4996629;28;20061;-80
2021/03/10 09:48:38;;;;;;;40.88;19.75;;;10.40;73.10;;;;;;4998122;28;20618;-81
2021/03/10 09:51:05;;;;;;;43.30;18.17;;;9.80;71.80;;;;;;4995286;28;20045;-82
2021/03/10 09:53:31;;;;;;;38.38;17.17;;;9.80;71.10;;;;;;4998254;28;20033;-81
2021/03/10 09:56:19;;;;;;;38.97;17.88;;;9.50;69.80;;;;;;5000875;28;20115;-81
2021/03/10 09:58:54;;;;;;;31.75;15.18;;;9.40;71.50;;;;;;4992503;28;20169;-79
2021/03/10 10:01:20;;;;;;;38.10;17.15;;;9.20;69.70;;;;;;4976688;28;20832;-81
2021/03/10 10:03:46;;;;;;;46.78;18.60;;;9.10;70.80;;;;;;4997542;28;20069;-81
2021/03/10 10:06:12;;;;;;;36.22;16.98;;;8.90;72.60;;;;;;4984572;28;20048;-81
2021/03/10 10:08:39;;;;;;;41.10;18.67;;;8.70;72.00;;;;;;5009911;28;20043;-82
2021/03/10 10:11:11;;;;;;;40.15;19.50;;;8.80;72.40;;;;;;5011951;28;20041;-81
2021/03/10 10:13:40;;;;;;;43.95;19.50;;;8.80;74.40;;;;;;4993857;28;20090;-79
2021/03/10 10:16:06;;;;;;;40.47;19.45;;;8.60;75.20;;;;;;5009904;28;20124;-79
2021/03/10 10:18:32;;;;;;;45.80;20.65;;;8.50;74.30;;;;;;4991805;28;20972;-80
2021/03/10 10:20:58;;;;;;;40.28;18.67;;;8.60;75.00;;;;;;4986402;28;20125;-79
2021/03/10 10:23:23;;;;;;;43.53;18.67;;;9.00;74.60;;;;;;4995051;28;21032;-79
2021/03/10 10:25:49;;;;;;;43.47;18.80;;;9.80;71.50;;;;;;5008784;28;20848;-79
2021/03/10 10:28:15;;;;;;;35.70;15.43;;;10.20;68.90;;;;;;5005749;28;20122;-78
2021/03/10 10:30:40;;;;;;;32.30;12.27;;;9.90;66.50;;;;;;4982584;28;20045;-79
2021/03/10 10:33:06;;;;;;;24.38;11.75;;;9.60;62.60;;;;;;4993799;28;20038;-80
2021/03/10 10:35:31;;;;;;;25.60;11.63;;;9.50;62.70;;;;;;4993661;28;20044;-81
2021/03/10 10:37:57;;;;;;;27.13;11.57;;;9.80;61.50;;;;;;4995075;28;20054;-79
2021/03/10 10:40:23;;;;;;;22.00;10.30;;;9.80;61.20;;;;;;4975542;28;20042;-79
2021/03/10 10:42:51;;;;;;;21.63;9.43;;;9.80;60.60;;;;;;4990371;28;20035;-80
2021/03/10 10:45:18;;;;;;;21.40;9.32;;;10.10;55.10;;;;;;4979341;28;20050;-81
2021/03/10 10:47:44;;;;;;;24.90;8.68;;;10.20;56.10;;;;;;4990751;28;20033;-80
2021/03/10 10:50:12;;;;;;;15.52;6.95;;;10.40;51.90;;;;;;4975862;28;20137;-79
2021/03/10 10:52:38;;;;;;;14.45;6.65;;;10.90;48.50;;;;;;4994306;28;20042;-81
2021/03/10 10:55:09;;;;;;;14.55;7.03;;;11.10;45.50;;;;;;5006200;28;20034;-79
2021/03/10 10:57:35;;;;;;;10.85;5.68;;;10.90;43.60;;;;;;4986043;28;20097;-78
2021/03/10 11:00:00;;;;;;;12.82;6.35;;;10.90;44.80;;;;;;4990887;28;20046;-80
2021/03/10 11:02:41;;;;;;;11.95;5.93;;;10.60;45.50;;;;;;4993827;28;20038;-82
2021/03/10 11:05:07;;;;;;;13.77;5.78;;;10.90;45.80;;;;;;4980806;28;20034;-80
2021/03/10 11:07:33;;;;;;;11.88;5.32;;;10.60;43.70;;;;;;4996385;28;20042;-80
2021/03/10 11:09:58;;;;;;;10.90;5.68;;;10.80;42.60;;;;;;4998182;28;20348;-80
2021/03/10 11:12:24;;;;;;;11.38;5.90;;;10.40;43.10;;;;;;4996253;28;20038;-79
2021/03/10 11:14:50;;;;;;;11.60;5.75;;;10.40;42.80;;;;;;4995643;28;20096;-80
2021/03/10 11:17:15;;;;;;;13.63;5.20;;;10.20;42.50;;;;;;4995249;28;20034;-80
2021/03/10 11:19:41;;;;;;;10.40;4.72;;;10.10;42.80;;;;;;4995679;28;20080;-80
2021/03/10 11:22:07;;;;;;;7.97;4.20;;;10.30;42.90;;;;;;4987016;28;20046;-80
2021/03/10 11:24:34;;;;;;;9.15;4.47;;;10.10;40.10;;;;;;4992218;28;20446;-80
2021/03/10 11:27:05;;;;;;;11.05;4.70;;;10.10;42.00;;;;;;4993070;28;20041;-80
2021/03/10 11:29:31;;;;;;;11.50;5.03;;;10.30;40.10;;;;;;4988617;28;20788;-82
2021/03/10 11:31:57;;;;;;;11.52;4.57;;;10.60;40.00;;;;;;4972715;28;20030;-80
2021/03/10 11:34:23;;;;;;;9.77;4.80;;;10.60;39.40;;;;;;4985305;28;20400;-80
2021/03/10 11:36:49;;;;;;;9.88;4.43;;;11.00;40.30;;;;;;4990294;28;20046;-77
2021/03/10 11:39:16;;;;;;;12.00;5.45;;;10.90;39.10;;;;;;4994556;28;20051;-78
2021/03/10 11:41:41;;;;;;;11.88;5.75;;;11.00;39.70;;;;;;4977533;28;20103;-80
2021/03/10 11:44:07;;;;;;;12.82;5.93;;;10.90;39.80;;;;;;4994456;28;20042;-80
2021/03/10 11:46:33;;;;;;;10.88;5.40;;;10.80;41.20;;;;;;4977917;28;20112;-80
2021/03/10 11:48:59;;;;;;;14.82;5.40;;;10.50;39.80;;;;;;4986323;28;20068;-80
2021/03/10 11:51:25;;;;;;;10.40;5.43;;;10.50;40.60;;;;;;4980451;28;20046;-81
2021/03/10 11:53:51;;;;;;;11.55;5.47;;;10.50;40.20;;;;;;5000320;28;20038;-81
2021/03/10 11:56:16;;;;;;;19.10;7.70;;;10.30;40.30;;;;;;4997071;28;20147;-81
2021/03/10 11:58:42;;;;;;;14.07;6.50;;;10.30;41.70;;;;;;4981041;28;20150;-80
2021/03/10 12:01:07;;;;;;;14.90;6.78;;;10.40;41.90;;;;;;4981405;28;20684;-81
2021/03/10 12:03:38;;;;;;;17.80;7.18;;;10.50;40.40;;;;;;5000263;28;20041;-83
2021/03/10 12:06:04;;;;;;;19.52;6.75;;;10.30;41.30;;;;;;4980469;28;20381;-82
2021/03/10 12:08:29;;;;;;;17.55;7.05;;;10.60;43.10;;;;;;4995535;28;20046;-80
2021/03/10 12:10:56;;;;;;;14.50;6.70;;;10.50;41.50;;;;;;4998846;28;20101;-79
2021/03/10 12:13:21;;;;;;;15.02;6.13;;;10.40;41.50;;;;;;4997669;28;20046;-79
2021/03/10 12:15:47;;;;;;;12.48;5.93;;;10.50;40.50;;;;;;4996442;28;20047;-82
2021/03/10 12:18:14;;;;;;;13.85;6.47;;;10.70;40.20;;;;;;4975071;28;20041;-81
2021/03/10 12:20:40;;;;;;;12.65;5.78;;;10.90;40.40;;;;;;4973016;28;20043;-82
2021/03/10 12:23:05;;;;;;;11.18;5.70;;;10.90;39.10;;;;;;4980173;28;20033;-81
2021/03/10 12:25:31;;;;;;;8.95;4.85;;;11.00;39.20;;;;;;4982991;28;20045;-81
2021/03/10 12:27:57;;;;;;;12.68;5.45;;;10.70;37.30;;;;;;4989178;28;20049;-81
2021/03/10 12:30:23;;;;;;;11.82;4.68;;;10.80;37.50;;;;;;4994913;28;20042;-79
2021/03/10 12:32:50;;;;;;;9.85;5.00;;;10.80;37.00;;;;;;4992733;28;20060;-81
2021/03/10 12:35:16;;;;;;;9.95;4.60;;;10.50;37.50;;;;;;4992269;28;20038;-82
2021/03/10 12:37:42;;;;;;;10.25;5.07;;;10.70;38.10;;;;;;4973891;28;20330;-84
2021/03/10 12:40:08;;;;;;;9.60;4.95;;;10.60;39.40;;;;;;4992809;28;20829;-82
2021/03/10 12:42:33;;;;;;;17.50;6.25;;;10.80;38.60;;;;;;4986555;28;20083;-82